Time;durP1;ratioP1;P1;durP2;ratioP2;P2;SDS_P1;SDS_P2;PMS_P1;PMS_P2;Temp;Humidity;BMP_temperature;BMP_pressure;BME280_temperature;BME280_humidity;BME280_pressure;Samples;Min_cycle;Max_cycle;Signal;HPM_P1;HPM_P2
2023/08/20 00:01:36;;;;;;;11.05;6.65;;;16.80;93.10;;;;;;5069987;28;20405;-45
2023/08/20 00:04:04;;;;;;;11.73;9.23;;;16.80;93.10;;;;;;5053628;28;20453;-44
2023/08/20 00:06:32;;;;;;;15.38;10.88;;;16.80;93.00;;;;;;5061306;28;20112;-44
2023/08/20 00:08:59;;;;;;;24.88;12.35;;;16.70;93.00;;;;;;5067411;28;20024;-43
2023/08/20 00:11:29;;;;;;;13.43;11.57;;;16.70;93.10;;;;;;5053089;28;20028;-44
2023/08/20 00:13:55;;;;;;;11.13;8.88;;;16.70;93.10;;;;;;5054151;28;20119;-44
2023/08/20 00:16:22;;;;;;;16.58;8.45;;;16.60;93.10;;;;;;5069754;28;20099;-44
2023/08/20 00:18:52;;;;;;;11.57;8.00;;;16.60;93.10;;;;;;5070660;28;20028;-46
2023/08/20 00:21:23;;;;;;;10.48;7.60;;;16.60;93.10;;;;;;5057382;28;20021;-46
2023/08/20 00:23:51;;;;;;;11.05;7.47;;;16.50;93.20;;;;;;5051525;28;20036;-46
2023/08/20 00:26:18;;;;;;;8.82;7.45;;;16.60;93.20;;;;;;5070095;28;20043;-47
2023/08/20 00:28:47;;;;;;;9.13;7.13;;;16.60;93.30;;;;;;5071167;28;20103;-44
2023/08/20 00:31:14;;;;;;;8.20;7.07;;;16.50;93.30;;;;;;5060408;28;20476;-44
2023/08/20 00:33:41;;;;;;;9.98;7.20;;;16.50;93.30;;;;;;5069432;28;20082;-44
2023/08/20 00:36:11;;;;;;;12.02;7.93;;;16.50;93.30;;;;;;5071095;28;20024;-44
2023/08/20 00:38:36;;;;;;;9.82;8.45;;;16.50;93.30;;;;;;5069043;28;20036;-45
2023/08/20 00:41:04;;;;;;;13.57;7.20;;;16.50;93.20;;;;;;5070635;28;20037;-45
2023/08/20 00:43:30;;;;;;;9.18;8.25;;;16.50;93.10;;;;;;5070938;28;20044;-45
2023/08/20 00:45:59;;;;;;;8.57;7.35;;;16.40;93.20;;;;;;5068435;28;20024;-44
2023/08/20 00:48:26;;;;;;;12.88;8.30;;;16.40;93.30;;;;;;5069502;28;20488;-45
2023/08/20 00:50:52;;;;;;;12.60;7.78;;;16.40;93.40;;;;;;5052860;28;20052;-44
2023/08/20 00:53:21;;;;;;;11.60;8.80;;;16.40;93.40;;;;;;5053824;28;20044;-45
2023/08/20 00:55:47;;;;;;;9.85;8.77;;;16.40;93.40;;;;;;5074893;28;20025;-44
2023/08/20 00:58:14;;;;;;;11.85;7.95;;;16.50;93.40;;;;;;5074581;28;20056;-44
2023/08/20 01:00:41;;;;;;;12.93;8.55;;;16.40;93.40;;;;;;5072665;28;20063;-44
2023/08/20 01:03:09;;;;;;;13.48;9.02;;;16.40;93.40;;;;;;5067065;28;20087;-45
2023/08/20 01:05:43;;;;;;;11.00;7.93;;;16.40;93.30;;;;;;5073576;28;20036;-45
2023/08/20 01:08:38;;;;;;;14.07;9.82;;;16.40;93.40;;;;;;5073433;28;20039;-45
2023/08/20 01:11:29;;;;;;;9.30;7.80;;;16.40;93.40;;;;;;5074908;28;20032;-44
2023/08/20 01:14:01;;;;;;;10.25;8.27;;;16.40;93.40;;;;;;5071010;28;20356;-45
2023/08/20 01:16:30;;;;;;;8.63;7.45;;;16.40;93.20;;;;;;5065472;28;20464;-44
2023/08/20 01:18:57;;;;;;;12.98;9.20;;;16.30;93.20;;;;;;5055595;28;20035;-44
2023/08/20 01:22:00;;;;;;;10.48;8.23;;;16.30;93.20;;;;;;5074652;28;20589;-45
2023/08/20 01:24:45;;;;;;;10.05;7.20;;;16.20;93.20;;;;;;5073224;28;20103;-46
2023/08/20 01:27:51;;;;;;;10.75;9.25;;;16.20;93.20;;;;;;5073475;28;20046;-45
2023/08/20 01:30:19;;;;;;;11.05;8.07;;;16.20;93.30;;;;;;4977149;28;20074;-47
2023/08/20 01:32:47;;;;;;;12.60;7.88;;;16.30;93.40;;;;;;4976757;28;20105;-44
2023/08/20 01:35:18;;;;;;;12.57;9.27;;;16.20;93.40;;;;;;4991759;28;20046;-45
2023/08/20 01:37:47;;;;;;;11.32;9.82;;;16.20;93.50;;;;;;4992118;28;20387;-46
2023/08/20 01:40:13;;;;;;;10.43;8.30;;;16.30;93.50;;;;;;4992375;28;20470;-45
2023/08/20 01:42:43;;;;;;;11.38;8.77;;;16.20;93.40;;;;;;4992114;28;20030;-44
2023/08/20 01:45:10;;;;;;;13.73;9.40;;;16.30;93.50;;;;;;4979007;28;20380;-45
2023/08/20 01:47:37;;;;;;;12.48;9.85;;;16.30;93.50;;;;;;4976157;28;20991;-44
2023/08/20 01:50:05;;;;;;;11.52;9.25;;;16.20;93.40;;;;;;4992594;28;20036;-45
2023/08/20 01:52:32;;;;;;;19.15;10.98;;;16.30;93.40;;;;;;4992169;28;20077;-45
2023/08/20 01:54:59;;;;;;;13.38;10.02;;;16.20;93.40;;;;;;4978825;28;20039;-45
2023/08/20 01:57:25;;;;;;;14.48;8.68;;;16.20;93.60;;;;;;4973162;28;20031;-45
2023/08/20 01:59:51;;;;;;;16.05;8.25;;;16.20;93.50;;;;;;4984032;28;20036;-47
2023/08/20 02:02:18;;;;;;;13.27;9.70;;;16.30;93.50;;;;;;4989277;28;20034;-45
2023/08/20 02:04:47;;;;;;;11.48;9.07;;;16.20;93.50;;;;;;4990626;28;20038;-46
2023/08/20 02:07:16;;;;;;;15.55;10.55;;;16.20;93.50;;;;;;5057217;28;20059;-44
2023/08/20 02:09:43;;;;;;;10.93;8.75;;;16.20;93.40;;;;;;5072456;28;20039;-47
2023/08/20 02:12:10;;;;;;;15.57;9.15;;;16.10;93.50;;;;;;5073213;28;20361;-45
2023/08/20 02:14:37;;;;;;;9.82;8.07;;;16.10;93.50;;;;;;5049709;28;20128;-46
2023/08/20 02:17:04;;;;;;;11.13;8.82;;;16.20;93.50;;;;;;5054193;28;20090;-45
2023/08/20 02:19:30;;;;;;;11.93;9.20;;;16.10;93.50;;;;;;5063205;28;20048;-46
2023/08/20 02:21:56;;;;;;;14.10;8.80;;;16.10;93.50;;;;;;5070983;28;20063;-45
2023/08/20 02:24:22;;;;;;;9.82;8.82;;;16.10;93.40;;;;;;5071776;28;20029;-45
2023/08/20 02:26:50;;;;;;;12.98;9.38;;;16.10;93.40;;;;;;5055271;28;20020;-45
2023/08/20 02:29:17;;;;;;;10.38;8.18;;;16.10;93.40;;;;;;5070918;28;20035;-48
2023/08/20 02:31:45;;;;;;;11.38;8.40;;;16.00;93.40;;;;;;5054758;28;20044;-45
2023/08/20 02:34:12;;;;;;;14.82;9.05;;;16.00;93.30;;;;;;5072096;28;20028;-44
2023/08/20 02:36:44;;;;;;;10.95;8.15;;;15.90;93.30;;;;;;5072808;28;20044;-44
2023/08/20 02:39:12;;;;;;;10.70;8.07;;;16.00;93.40;;;;;;5069352;28;20045;-45
2023/08/20 02:41:41;;;;;;;11.93;8.45;;;16.00;93.40;;;;;;5069493;28;20017;-47
2023/08/20 02:44:09;;;;;;;12.48;9.80;;;15.90;93.20;;;;;;5052474;28;20035;-45
2023/08/20 02:46:38;;;;;;;13.70;8.20;;;15.90;93.30;;;;;;5064990;28;20111;-45
2023/08/20 02:49:07;;;;;;;18.15;8.50;;;15.90;93.30;;;;;;5070831;28;20028;-45
2023/08/20 02:51:41;;;;;;;12.93;8.63;;;15.90;93.30;;;;;;5072350;28;20453;-45
2023/08/20 02:54:08;;;;;;;13.13;8.60;;;15.90;93.30;;;;;;5054996;28;20051;-45
2023/08/20 02:56:35;;;;;;;15.70;9.30;;;15.90;93.20;;;;;;5053253;28;20150;-45
2023/08/20 02:59:02;;;;;;;11.05;8.27;;;15.90;93.30;;;;;;5065578;28;20028;-46
2023/08/20 03:01:32;;;;;;;10.45;7.63;;;15.90;93.20;;;;;;5071338;28;20029;-45
2023/08/20 03:04:01;;;;;;;13.95;8.52;;;15.80;93.20;;;;;;5071948;28;20024;-45
2023/08/20 03:06:28;;;;;;;13.68;9.20;;;15.80;93.20;;;;;;5071912;28;20032;-46
2023/08/20 03:08:57;;;;;;;11.32;8.40;;;15.80;93.20;;;;;;5072652;28;20040;-46
2023/08/20 03:11:24;;;;;;;10.45;7.78;;;15.80;93.10;;;;;;5070612;28;20032;-45
2023/08/20 03:13:49;;;;;;;12.43;7.97;;;15.70;93.10;;;;;;5068737;28;20029;-47
2023/08/20 03:16:16;;;;;;;10.65;7.85;;;15.70;93.20;;;;;;5040058;28;20021;-45
2023/08/20 03:18:43;;;;;;;14.25;8.20;;;15.70;93.20;;;;;;5052376;28;20050;-45
2023/08/20 03:21:10;;;;;;;12.05;8.07;;;15.70;93.10;;;;;;5048776;28;20028;-46
2023/08/20 03:23:36;;;;;;;10.50;7.32;;;15.70;93.20;;;;;;5052077;28;20032;-45
2023/08/20 03:26:03;;;;;;;10.18;7.18;;;15.70;93.20;;;;;;5071539;28;20108;-45
2023/08/20 03:28:30;;;;;;;9.30;7.63;;;15.70;93.20;;;;;;5070913;28;20031;-46
2023/08/20 03:31:00;;;;;;;18.85;9.35;;;15.60;93.20;;;;;;5067442;28;20037;-46
2023/08/20 03:33:28;;;;;;;17.90;9.23;;;15.70;93.20;;;;;;5063815;28;20039;-45
2023/08/20 03:35:54;;;;;;;12.27;8.50;;;15.60;93.20;;;;;;5056291;28;20029;-45
2023/08/20 03:38:22;;;;;;;13.52;8.18;;;15.60;93.30;;;;;;5063885;28;20036;-45
2023/08/20 03:40:49;;;;;;;10.55;7.47;;;15.60;93.20;;;;;;5070932;28;20051;-45
2023/08/20 03:43:15;;;;;;;13.05;8.10;;;15.60;93.20;;;;;;5062794;28;20104;-46
2023/08/20 03:45:41;;;;;;;9.57;7.25;;;15.60;93.30;;;;;;5069277;28;20179;-45
2023/08/20 03:48:12;;;;;;;10.13;7.22;;;15.60;93.20;;;;;;5072165;28;20025;-46
2023/08/20 03:50:41;;;;;;;9.90;6.53;;;15.60;93.20;;;;;;5072036;28;20025;-46
2023/08/20 03:53:10;;;;;;;10.02;7.03;;;15.50;93.00;;;;;;5070270;28;20047;-45
2023/08/20 03:55:37;;;;;;;9.15;6.45;;;15.50;93.00;;;;;;5071014;28;20040;-46
2023/08/20 03:58:07;;;;;;;8.68;7.28;;;15.40;92.80;;;;;;5070553;28;20044;-46
2023/08/20 04:00:36;;;;;;;9.55;6.80;;;15.40;92.90;;;;;;5068400;28;20460;-45
2023/08/20 04:03:03;;;;;;;8.05;6.18;;;15.40;92.90;;;;;;5071580;28;20024;-45
2023/08/20 04:05:35;;;;;;;10.40;6.75;;;15.40;92.80;;;;;;5069238;28;20453;-46
2023/08/20 04:08:01;;;;;;;9.75;7.63;;;15.30;92.80;;;;;;5070152;28;20033;-45
2023/08/20 04:10:27;;;;;;;10.40;7.93;;;15.30;92.80;;;;;;5052859;28;20044;-46
2023/08/20 04:12:56;;;;;;;10.68;7.65;;;15.20;92.90;;;;;;5070778;28;20051;-46
2023/08/20 04:15:25;;;;;;;9.70;6.78;;;15.30;93.00;;;;;;5057336;28;20154;-46
2023/08/20 04:17:53;;;;;;;9.30;6.43;;;15.20;92.90;;;;;;5071768;28;20064;-45
2023/08/20 04:20:20;;;;;;;11.38;7.15;;;15.20;92.90;;;;;;5070726;28;20036;-45
2023/08/20 04:22:46;;;;;;;14.25;7.68;;;15.20;92.90;;;;;;5066500;28;20457;-45
2023/08/20 04:25:12;;;;;;;9.77;7.72;;;15.20;93.00;;;;;;5068785;28;20123;-48
2023/08/20 04:27:41;;;;;;;14.10;7.63;;;15.20;93.10;;;;;;5052948;28;20474;-45
2023/08/20 04:30:09;;;;;;;10.30;7.75;;;15.30;93.20;;;;;;5065009;28;20376;-45
2023/08/20 04:32:36;;;;;;;18.63;8.23;;;15.30;93.20;;;;;;5074013;28;20029;-45
2023/08/20 04:35:02;;;;;;;15.48;8.60;;;15.30;93.20;;;;;;5073520;28;20052;-46
2023/08/20 04:37:29;;;;;;;11.63;8.13;;;15.30;93.20;;;;;;5070333;28;20350;-47
2023/08/20 04:39:56;;;;;;;10.65;7.20;;;15.30;93.10;;;;;;5074032;28;20052;-46
2023/08/20 04:42:22;;;;;;;12.82;8.52;;;15.30;93.10;;;;;;5057665;28;20725;-45
2023/08/20 04:44:51;;;;;;;13.35;8.00;;;15.40;93.10;;;;;;5056147;28;20020;-45
2023/08/20 04:47:17;;;;;;;12.93;8.38;;;15.40;93.20;;;;;;5072900;28;20144;-45
2023/08/20 04:49:44;;;;;;;13.52;9.00;;;15.30;93.10;;;;;;5074261;28;20131;-46
2023/08/20 04:52:11;;;;;;;8.65;7.63;;;15.40;93.20;;;;;;5074159;28;20374;-45
2023/08/20 04:54:38;;;;;;;13.60;7.60;;;15.40;93.30;;;;;;5055539;28;20858;-46
2023/08/20 04:57:05;;;;;;;11.95;8.40;;;15.40;93.20;;;;;;5057624;28;20543;-46
2023/08/20 04:59:32;;;;;;;11.18;8.43;;;15.40;93.30;;;;;;5047038;28;20027;-47
2023/08/20 05:01:59;;;;;;;9.73;7.88;;;15.40;93.20;;;;;;5040236;28;20029;-48
2023/08/20 05:04:27;;;;;;;13.73;7.97;;;15.40;93.20;;;;;;5054964;28;20046;-46
2023/08/20 05:06:54;;;;;;;11.60;7.25;;;15.40;93.20;;;;;;5063579;28;20017;-46
2023/08/20 05:09:20;;;;;;;14.70;8.68;;;15.40;93.20;;;;;;5064939;28;20099;-46
2023/08/20 05:11:46;;;;;;;12.85;7.75;;;15.40;93.20;;;;;;5047507;28;20039;-46
2023/08/20 05:14:18;;;;;;;10.40;7.63;;;15.40;93.20;;;;;;5063173;28;20021;-47
2023/08/20 05:16:45;;;;;;;10.63;8.18;;;15.40;93.20;;;;;;5064353;28;20040;-46
2023/08/20 05:19:11;;;;;;;8.18;7.10;;;15.40;93.20;;;;;;5063443;28;20086;-48
2023/08/20 05:21:39;;;;;;;9.68;7.28;;;15.50;93.20;;;;;;5062582;28;20025;-50
2023/08/20 05:24:06;;;;;;;12.60;8.20;;;15.40;93.30;;;;;;5044719;28;20481;-46
2023/08/20 05:26:32;;;;;;;12.98;7.85;;;15.50;93.40;;;;;;5063418;28;20024;-46
2023/08/20 05:28:59;;;;;;;11.38;8.15;;;15.60;93.40;;;;;;5064009;28;20077;-46
2023/08/20 05:31:26;;;;;;;9.15;7.93;;;15.60;93.50;;;;;;5067151;28;20081;-46
2023/08/20 05:33:53;;;;;;;11.85;7.80;;;15.60;93.50;;;;;;5062162;28;20035;-46
2023/08/20 05:36:20;;;;;;;10.27;8.00;;;15.70;93.50;;;;;;5062744;28;20037;-46
2023/08/20 05:38:47;;;;;;;10.98;8.05;;;15.80;93.60;;;;;;5055395;28;20029;-46
2023/08/20 05:41:13;;;;;;;11.07;8.25;;;15.80;93.60;;;;;;5067421;28;20591;-46
2023/08/20 05:43:40;;;;;;;9.38;7.97;;;15.90;93.70;;;;;;5082566;28;20025;-47
2023/08/20 05:46:06;;;;;;;23.83;7.88;;;15.90;93.60;;;;;;5068077;28;20036;-48
2023/08/20 05:48:33;;;;;;;13.20;8.32;;;15.90;93.70;;;;;;5076971;28;20454;-47
2023/08/20 05:51:00;;;;;;;11.80;7.80;;;16.00;93.70;;;;;;5086938;28;20127;-46
2023/08/20 05:53:26;;;;;;;11.60;7.45;;;16.00;93.80;;;;;;5077113;28;20475;-46
2023/08/20 05:55:53;;;;;;;10.90;7.45;;;16.10;93.80;;;;;;5091527;28;20085;-46
2023/08/20 05:58:18;;;;;;;13.60;7.30;;;16.20;93.80;;;;;;5085046;28;20066;-46
2023/08/20 06:00:46;;;;;;;14.32;8.73;;;16.30;93.90;;;;;;5083569;28;20055;-46
2023/08/20 06:03:13;;;;;;;10.30;7.72;;;16.30;93.80;;;;;;5082642;28;20100;-46
2023/08/20 06:05:39;;;;;;;11.52;8.13;;;16.40;93.90;;;;;;5086876;28;20031;-46
2023/08/20 06:08:06;;;;;;;12.90;6.75;;;16.40;93.90;;;;;;5084864;28;20032;-46
2023/08/20 06:10:33;;;;;;;9.15;6.90;;;16.40;94.00;;;;;;5061815;28;21371;-45
2023/08/20 06:13:01;;;;;;;11.90;7.00;;;16.60;94.00;;;;;;5088183;28;20517;-47
2023/08/20 06:15:29;;;;;;;15.77;8.65;;;16.60;94.00;;;;;;5087549;28;20061;-46
2023/08/20 06:17:56;;;;;;;11.77;8.30;;;16.70;94.00;;;;;;5094072;28;20475;-46
2023/08/20 06:20:23;;;;;;;11.32;7.07;;;16.70;94.00;;;;;;5092359;28;20032;-46
2023/08/20 06:22:49;;;;;;;13.35;7.00;;;16.80;94.20;;;;;;5092389;28;20047;-46
2023/08/20 06:25:15;;;;;;;14.27;7.68;;;16.90;94.20;;;;;;5093584;28;20041;-47
2023/08/20 06:27:44;;;;;;;18.38;9.20;;;16.90;94.20;;;;;;5090342;28;20024;-45
2023/08/20 06:30:09;;;;;;;18.35;9.88;;;17.00;94.20;;;;;;5080172;28;20031;-46
2023/08/20 06:32:41;;;;;;;16.40;9.48;;;17.10;94.20;;;;;;5081981;28;20432;-46
2023/08/20 06:35:09;;;;;;;18.00;11.65;;;17.10;94.20;;;;;;5083638;28;20752;-46
2023/08/20 06:37:38;;;;;;;18.80;11.68;;;17.20;94.30;;;;;;5061312;28;20021;-46
2023/08/20 06:40:09;;;;;;;19.27;12.05;;;17.20;94.30;;;;;;5086309;28;20632;-48
2023/08/20 06:42:37;;;;;;;17.20;10.73;;;17.30;94.40;;;;;;5081561;28;20091;-46
2023/08/20 06:45:03;;;;;;;13.85;9.45;;;17.40;94.40;;;;;;5081994;28;20024;-46
2023/08/20 06:47:30;;;;;;;12.73;10.02;;;17.40;94.40;;;;;;5081428;28;20237;-45
2023/08/20 06:49:57;;;;;;;14.13;8.45;;;17.40;94.30;;;;;;5083071;28;20043;-46
2023/08/20 06:52:23;;;;;;;15.27;9.02;;;17.40;94.30;;;;;;5087968;28;20047;-47
2023/08/20 06:54:51;;;;;;;13.57;9.73;;;17.50;94.20;;;;;;5060962;28;20134;-47
2023/08/20 06:57:18;;;;;;;13.27;10.13;;;17.50;94.20;;;;;;5082728;28;20515;-47
2023/08/20 06:59:44;;;;;;;14.98;9.85;;;17.60;94.30;;;;;;5064016;28;20074;-47
2023/08/20 07:02:11;;;;;;;12.27;10.98;;;17.60;94.30;;;;;;5085748;28;20113;-44
2023/08/20 07:04:38;;;;;;;14.27;11.02;;;17.60;94.40;;;;;;5082012;28;20504;-45
2023/08/20 07:07:05;;;;;;;15.75;10.93;;;17.70;94.40;;;;;;5051973;28;20032;-46
2023/08/20 07:09:35;;;;;;;16.15;10.27;;;17.70;94.40;;;;;;5062955;28;20039;-54
2023/08/20 07:12:03;;;;;;;17.30;9.48;;;17.80;94.40;;;;;;5063720;28;20087;-46
2023/08/20 07:14:30;;;;;;;18.95;10.43;;;17.90;94.50;;;;;;5065275;28;20028;-46
2023/08/20 07:16:56;;;;;;;15.60;8.13;;;17.90;94.50;;;;;;5080294;28;20016;-45
2023/08/20 07:19:24;;;;;;;18.80;9.50;;;18.00;94.50;;;;;;5081969;28;20032;-45
2023/08/20 07:21:50;;;;;;;11.10;8.00;;;18.00;94.40;;;;;;5062342;28;20048;-48
2023/08/20 07:24:25;;;;;;;15.20;8.35;;;18.20;94.60;;;;;;5090788;28;20077;-45
2023/08/20 07:26:59;;;;;;;11.80;7.47;;;18.30;94.50;;;;;;5085298;28;20032;-45
2023/08/20 07:29:25;;;;;;;13.68;7.95;;;18.30;94.50;;;;;;5083503;28;20024;-45
2023/08/20 07:31:52;;;;;;;23.50;9.52;;;18.40;94.20;;;;;;5054043;28;20078;-45
2023/08/20 07:34:18;;;;;;;14.40;7.65;;;18.50;94.10;;;;;;5068473;28;20453;-44
2023/08/20 07:36:47;;;;;;;16.05;8.43;;;18.60;93.90;;;;;;5047978;28;20032;-45
2023/08/20 07:39:12;;;;;;;15.75;8.45;;;18.60;93.40;;;;;;5079799;28;20469;-45
2023/08/20 07:41:39;;;;;;;14.23;6.30;;;18.80;93.20;;;;;;5081614;28;20039;-45
2023/08/20 07:44:09;;;;;;;14.38;5.88;;;18.90;93.10;;;;;;5076288;28;20067;-47
2023/08/20 07:46:36;;;;;;;11.95;6.22;;;19.00;93.00;;;;;;5063122;28;20145;-44
2023/08/20 07:49:03;;;;;;;10.27;4.50;;;19.10;92.60;;;;;;5085984;28;20031;-48
2023/08/20 07:51:29;;;;;;;10.00;3.80;;;19.40;92.60;;;;;;5089929;28;20420;-44
2023/08/20 07:53:59;;;;;;;11.90;4.65;;;19.60;91.50;;;;;;5090935;28;20020;-44
2023/08/20 07:56:26;;;;;;;;;;;19.90;90.40;;;;;;5086882;28;20373;-44
2023/08/20 07:58:53;;;;;;;10.98;3.65;;;20.40;89.70;;;;;;5090280;28;19918;-45
2023/08/20 08:01:20;;;;;;;9.48;3.28;;;20.70;87.30;;;;;;5083187;28;20020;-45
2023/08/20 08:03:49;;;;;;;8.82;3.40;;;21.10;86.90;;;;;;5076312;28;20070;-46
2023/08/20 08:06:17;;;;;;;10.55;3.10;;;21.30;84.20;;;;;;5096642;28;20036;-46
2023/08/20 08:08:46;;;;;;;5.97;2.40;;;21.60;85.40;;;;;;5094885;28;20036;-47
2023/08/20 08:11:12;;;;;;;9.25;2.88;;;21.80;83.00;;;;;;5094153;28;20031;-48
2023/08/20 08:13:38;;;;;;;7.38;2.88;;;22.00;82.20;;;;;;5092617;28;20027;-47
2023/08/20 08:16:11;;;;;;;11.43;2.90;;;22.40;83.40;;;;;;5087820;28;20040;-48
2023/08/20 08:18:38;;;;;;;10.10;3.78;;;22.80;82.20;;;;;;5092019;28;20456;-48
2023/08/20 08:21:04;;;;;;;6.50;2.70;;;22.90;78.80;;;;;;5089021;28;20081;-49
2023/08/20 08:23:31;;;;;;;6.57;2.22;;;23.00;79.50;;;;;;5077243;28;20013;-50
2023/08/20 08:26:03;;;;;;;9.35;2.72;;;23.10;77.80;;;;;;5092573;28;20020;-49
2023/08/20 08:28:30;;;;;;;7.57;2.40;;;23.40;77.60;;;;;;5090010;28;20433;-50
2023/08/20 08:30:59;;;;;;;10.90;3.20;;;23.40;75.80;;;;;;5089477;28;20031;-52
2023/08/20 08:33:27;;;;;;;8.60;2.30;;;23.60;75.80;;;;;;5091202;28;20080;-49
2023/08/20 08:35:56;;;;;;;8.15;2.97;;;23.70;75.20;;;;;;5090563;28;20114;-51
2023/08/20 08:38:22;;;;;;;6.20;2.45;;;23.80;75.10;;;;;;5064148;28;20508;-49
2023/08/20 08:40:53;;;;;;;5.15;2.55;;;24.00;74.20;;;;;;5068123;28;20113;-49
2023/08/20 08:43:20;;;;;;;9.70;2.10;;;24.20;74.30;;;;;;5068549;28;20028;-52
2023/08/20 08:45:50;;;;;;;6.90;2.28;;;24.30;72.20;;;;;;5070056;28;20024;-49
2023/08/20 08:48:18;;;;;;;8.43;2.83;;;24.30;72.70;;;;;;5080100;28;20413;-49
2023/08/20 08:50:48;;;;;;;7.22;2.17;;;24.40;74.50;;;;;;5073983;28;20032;-50
2023/08/20 08:53:15;;;;;;;7.63;2.20;;;24.30;72.20;;;;;;5073468;28;20033;-49
2023/08/20 08:55:44;;;;;;;5.40;1.63;;;24.40;74.00;;;;;;5070173;28;20070;-49
2023/08/20 08:58:11;;;;;;;9.27;2.42;;;24.70;73.40;;;;;;5069196;28;20361;-49
2023/08/20 09:00:38;;;;;;;5.90;1.90;;;24.50;71.10;;;;;;5060894;28;20330;-51
2023/08/20 09:03:05;;;;;;;8.10;2.30;;;24.40;72.70;;;;;;5073408;28;20043;-50
2023/08/20 09:05:32;;;;;;;6.88;1.75;;;24.60;72.90;;;;;;5074891;28;20108;-47
2023/08/20 09:07:58;;;;;;;8.30;2.65;;;24.90;73.40;;;;;;5071361;28;20058;-48
2023/08/20 09:10:27;;;;;;;7.63;2.08;;;25.10;72.00;;;;;;5075151;28;20028;-51
2023/08/20 09:12:54;;;;;;;;;;;25.10;70.20;;;;;;5066347;28;21936;-47
2023/08/20 09:15:21;;;;;;;5.88;1.58;;;25.10;69.00;;;;;;5057422;28;19923;-49
2023/08/20 09:17:50;;;;;;;9.38;3.03;;;25.10;70.00;;;;;;5068303;28;20138;-49
2023/08/20 09:20:20;;;;;;;;;;;25.20;68.80;;;;;;5069000;28;20043;-49
2023/08/20 09:22:48;;;;;;;;;;;25.20;70.60;;;;;;5065992;28;20002;-48
2023/08/20 09:25:16;;;;;;;6.97;2.22;;;25.40;70.20;;;;;;5072303;28;19913;-48
2023/08/20 09:27:44;;;;;;;9.10;2.03;;;25.50;69.30;;;;;;5065831;28;20119;-50
2023/08/20 09:30:18;;;;;;;7.47;1.88;;;25.60;69.00;;;;;;5059593;28;20029;-47
2023/08/20 09:32:45;;;;;;;6.57;2.50;;;25.70;69.90;;;;;;5065294;28;20043;-52
2023/08/20 09:35:18;;;;;;;6.97;2.30;;;25.80;68.00;;;;;;5067546;28;20047;-48
2023/08/20 09:37:44;;;;;;;9.02;2.05;;;25.90;69.60;;;;;;5069654;28;20033;-47
2023/08/20 09:40:13;;;;;;;5.35;1.80;;;26.10;69.00;;;;;;5047610;28;20044;-52
2023/08/20 09:42:44;;;;;;;7.00;2.33;;;26.00;67.50;;;;;;5063611;28;20024;-50
2023/08/20 09:45:11;;;;;;;7.50;2.15;;;26.10;67.10;;;;;;5067977;28;20453;-51
2023/08/20 09:47:40;;;;;;;4.18;1.65;;;26.10;65.30;;;;;;5041961;28;20037;-51
2023/08/20 09:50:11;;;;;;;6.95;2.00;;;26.20;68.20;;;;;;5056248;28;20029;-49
2023/08/20 09:52:54;;;;;;;7.72;2.03;;;26.10;65.50;;;;;;5060127;28;20017;-48
2023/08/20 09:55:30;;;;;;;6.80;2.13;;;25.70;65.30;;;;;;5035463;28;20044;-50
2023/08/20 09:58:00;;;;;;;5.45;1.52;;;25.60;67.00;;;;;;5042679;28;20033;-47
2023/08/20 10:00:31;;;;;;;7.15;1.88;;;25.50;66.00;;;;;;5051188;28;20033;-51
2023/08/20 10:02:59;;;;;;;7.07;2.08;;;25.80;67.50;;;;;;5061922;28;20024;-48
2023/08/20 10:05:25;;;;;;;6.18;2.03;;;25.60;65.90;;;;;;5066921;28;20025;-48
2023/08/20 10:07:52;;;;;;;5.80;1.83;;;25.90;68.80;;;;;;5071500;28;20337;-48
2023/08/20 10:10:19;;;;;;;6.93;1.92;;;25.80;64.80;;;;;;5039048;28;20514;-49
2023/08/20 10:12:48;;;;;;;8.07;1.77;;;26.00;66.40;;;;;;5070358;28;20485;-50
2023/08/20 10:15:14;;;;;;;5.40;1.63;;;26.10;66.10;;;;;;5057679;28;20346;-54
2023/08/20 10:17:42;;;;;;;8.35;2.38;;;25.80;65.80;;;;;;5062605;28;20111;-50
2023/08/20 10:20:16;;;;;;;7.00;2.28;;;25.90;67.00;;;;;;5047087;28;20489;-48
2023/08/20 10:22:44;;;;;;;6.22;1.67;;;25.90;65.20;;;;;;5071889;28;20062;-49
2023/08/20 10:25:23;;;;;;;6.82;3.00;;;26.00;65.70;;;;;;5071786;28;20420;-50
2023/08/20 10:27:49;;;;;;;7.63;2.57;;;26.20;64.00;;;;;;5068767;28;20024;-48
2023/08/20 10:30:26;;;;;;;8.98;2.28;;;26.10;64.60;;;;;;5061018;28;20070;-48
2023/08/20 10:33:14;;;;;;;7.57;1.70;;;26.20;65.30;;;;;;5044569;28;20031;-51
2023/08/20 10:35:42;;;;;;;5.00;1.73;;;25.90;64.70;;;;;;5066986;28;20040;-50
2023/08/20 10:38:22;;;;;;;4.38;1.45;;;25.80;66.40;;;;;;5053492;28;20682;-49
2023/08/20 10:41:01;;;;;;;7.32;2.17;;;25.70;64.40;;;;;;5069555;28;20040;-48
2023/08/20 10:43:34;;;;;;;6.65;1.63;;;25.70;64.30;;;;;;5063732;28;20029;-49
2023/08/20 10:46:19;;;;;;;5.70;1.67;;;25.70;65.60;;;;;;5057664;28;20662;-52
2023/08/20 10:48:48;;;;;;;5.72;1.60;;;25.80;64.20;;;;;;5069376;28;20043;-50
2023/08/20 10:51:23;;;;;;;7.17;1.93;;;25.60;64.70;;;;;;5070243;28;20106;-54
2023/08/20 10:54:05;;;;;;;4.45;1.80;;;25.30;63.90;;;;;;5072906;28;20030;-51
2023/08/20 10:57:00;;;;;;;5.00;1.17;;;25.60;65.50;;;;;;5052778;28;20538;-50
2023/08/20 10:59:29;;;;;;;6.38;1.70;;;25.90;66.80;;;;;;5061548;28;20029;-51
2023/08/20 11:01:58;;;;;;;5.88;1.77;;;26.00;64.80;;;;;;5070398;28;20020;-52
2023/08/20 11:04:28;;;;;;;5.40;1.67;;;26.10;62.70;;;;;;5069770;28;20040;-50
2023/08/20 11:06:57;;;;;;;6.63;2.22;;;26.20;64.30;;;;;;5061977;28;20017;-52
2023/08/20 11:09:30;;;;;;;4.13;1.38;;;26.30;64.00;;;;;;5066278;28;20033;-50
2023/08/20 11:11:59;;;;;;;4.53;1.35;;;26.40;62.30;;;;;;5046722;28;20048;-50
2023/08/20 11:14:25;;;;;;;3.85;1.10;;;26.70;61.90;;;;;;5067577;28;20024;-49
2023/08/20 11:16:58;;;;;;;3.97;1.33;;;26.90;62.10;;;;;;5048847;28;20028;-51
2023/08/20 11:19:29;;;;;;;3.70;1.13;;;26.90;62.00;;;;;;5071051;28;20036;-51
2023/08/20 11:21:59;;;;;;;2.95;1.15;;;26.90;61.40;;;;;;5066960;28;20120;-52
2023/08/20 11:24:29;;;;;;;10.02;1.50;;;26.90;61.90;;;;;;5064039;28;20047;-51
2023/08/20 11:26:56;;;;;;;5.07;1.50;;;26.80;60.90;;;;;;5062017;28;20453;-48
2023/08/20 11:29:26;;;;;;;5.07;1.00;;;26.90;61.70;;;;;;5065370;28;20028;-54
2023/08/20 11:31:52;;;;;;;;;;;26.90;59.10;;;;;;5065525;28;20029;-51
2023/08/20 11:34:19;;;;;;;6.18;1.50;;;26.90;60.80;;;;;;5070269;28;20389;-51
2023/08/20 11:36:46;;;;;;;5.32;1.73;;;27.00;59.90;;;;;;5043319;28;20032;-55
2023/08/20 11:39:13;;;;;;;4.53;1.42;;;26.60;58.70;;;;;;5049885;28;20539;-50
2023/08/20 11:41:40;;;;;;;5.35;2.20;;;26.30;58.70;;;;;;5057704;28;20531;-51
2023/08/20 11:44:10;;;;;;;3.17;1.02;;;26.30;62.60;;;;;;5068942;28;20017;-52
2023/08/20 11:46:46;;;;;;;5.05;1.52;;;26.30;59.70;;;;;;5058105;28;20085;-50
2023/08/20 11:49:16;;;;;;;3.65;1.40;;;26.10;59.90;;;;;;5066702;28;20029;-55
2023/08/20 11:52:00;;;;;;;5.45;1.23;;;26.30;61.80;;;;;;5070361;28;20032;-51
2023/08/20 11:54:29;;;;;;;3.90;0.90;;;26.60;62.30;;;;;;5065860;28;20028;-51
2023/08/20 11:57:05;;;;;;;4.40;1.20;;;26.60;58.50;;;;;;5070630;28;20049;-50
2023/08/20 11:59:32;;;;;;;6.32;1.88;;;26.60;58.30;;;;;;5066664;28;20103;-54
2023/08/20 12:02:06;;;;;;;4.65;1.67;;;26.90;62.80;;;;;;5049063;28;20029;-50
2023/08/20 12:04:33;;;;;;;3.30;1.10;;;26.90;57.70;;;;;;5055343;28;20021;-53
2023/08/20 12:07:09;;;;;;;5.22;1.40;;;26.70;56.30;;;;;;5067884;28;20457;-52
2023/08/20 12:09:36;;;;;;;4.57;1.17;;;26.40;56.80;;;;;;5070256;28;20079;-52
2023/08/20 12:12:06;;;;;;;4.75;1.30;;;26.60;60.30;;;;;;5071580;28;20119;-55
2023/08/20 12:14:32;;;;;;;5.53;1.40;;;26.70;57.80;;;;;;5049953;28;20090;-55
2023/08/20 12:16:58;;;;;;;3.67;1.30;;;26.80;57.60;;;;;;5068310;28;20032;-52
2023/08/20 12:19:27;;;;;;;4.20;1.00;;;26.70;58.00;;;;;;5068054;28;20025;-51
2023/08/20 12:21:57;;;;;;;3.60;1.42;;;26.80;60.70;;;;;;5050340;28;20150;-54
2023/08/20 12:24:25;;;;;;;9.43;2.00;;;26.90;58.70;;;;;;5068889;28;20044;-53
2023/08/20 12:26:51;;;;;;;8.97;2.87;;;27.10;62.20;;;;;;5069709;28;20056;-53
2023/08/20 12:29:18;;;;;;;8.68;2.30;;;27.10;61.90;;;;;;5070807;28;20069;-55
2023/08/20 12:31:50;;;;;;;8.40;2.40;;;27.10;62.40;;;;;;5067977;28;20157;-56
2023/08/20 12:34:21;;;;;;;9.10;2.80;;;26.80;63.30;;;;;;5052329;28;20036;-52
2023/08/20 12:36:48;;;;;;;8.90;2.40;;;26.90;63.50;;;;;;5070676;28;20119;-52
2023/08/20 12:39:18;;;;;;;7.45;2.63;;;26.90;63.40;;;;;;5070224;28;20074;-54
2023/08/20 12:41:44;;;;;;;;;;;26.60;63.10;;;;;;5071453;28;20047;-52
2023/08/20 12:44:10;;;;;;;12.32;3.17;;;26.30;64.10;;;;;;5051408;28;19913;-52
2023/08/20 12:46:36;;;;;;;9.65;2.70;;;26.10;67.10;;;;;;5065708;28;20043;-54
2023/08/20 12:49:02;;;;;;;7.70;3.08;;;26.10;69.30;;;;;;5040720;28;20461;-51
2023/08/20 12:51:29;;;;;;;6.63;2.35;;;25.90;69.40;;;;;;5057624;28;20025;-54